sensor_id;sensor_type;location;lat;lon;timestamp;P1;durP1;ratioP1;P2;durP2;ratioP2
37411;SDS011;23278;52.110;6.050;2023-07-08T00:01:16;2.15;;;1.25;;
37411;SDS011;23278;52.110;6.050;2023-07-08T00:03:45;1.95;;;1.20;;
37411;SDS011;23278;52.110;6.050;2023-07-08T00:06:25;2.47;;;1.58;;
37411;SDS011;23278;52.110;6.050;2023-07-08T00:08:53;2.80;;;1.83;;
37411;SDS011;23278;52.110;6.050;2023-07-08T00:11:19;2.45;;;1.48;;
37411;SDS011;23278;52.110;6.050;2023-07-08T00:13:45;2.45;;;1.48;;
37411;SDS011;23278;52.110;6.050;2023-07-08T00:16:12;3.80;;;1.38;;
37411;SDS011;23278;52.110;6.050;2023-07-08T00:18:43;2.55;;;1.65;;
37411;SDS011;23278;52.110;6.050;2023-07-08T00:21:14;3.05;;;1.45;;
37411;SDS011;23278;52.110;6.050;2023-07-08T00:23:45;2.90;;;1.55;;
37411;SDS011;23278;52.110;6.050;2023-07-08T00:26:17;2.13;;;1.20;;
37411;SDS011;23278;52.110;6.050;2023-07-08T00:31:13;5.05;;;1.33;;
37411;SDS011;23278;52.110;6.050;2023-07-08T00:33:40;3.72;;;1.20;;
37411;SDS011;23278;52.110;6.050;2023-07-08T00:36:13;4.90;;;1.85;;
37411;SDS011;23278;52.110;6.050;2023-07-08T00:38:41;3.55;;;1.50;;
37411;SDS011;23278;52.110;6.050;2023-07-08T00:41:18;3.17;;;1.40;;
37411;SDS011;23278;52.110;6.050;2023-07-08T00:43:55;2.03;;;1.48;;
37411;SDS011;23278;52.110;6.050;2023-07-08T00:51:33;1.65;;;0.90;;
37411;SDS011;23278;52.110;6.050;2023-07-08T00:54:00;3.72;;;1.10;;
37411;SDS011;23278;52.110;6.050;2023-07-08T00:59:06;1.83;;;1.20;;
37411;SDS011;23278;52.110;6.050;2023-07-08T01:01:40;2.60;;;1.45;;
37411;SDS011;23278;52.110;6.050;2023-07-08T01:04:17;2.10;;;1.45;;
37411;SDS011;23278;52.110;6.050;2023-07-08T01:06:49;2.60;;;1.02;;
37411;SDS011;23278;52.110;6.050;2023-07-08T01:09:27;2.25;;;1.35;;
37411;SDS011;23278;52.110;6.050;2023-07-08T01:12:13;3.28;;;1.30;;
37411;SDS011;23278;52.110;6.050;2023-07-08T01:14:41;1.95;;;1.40;;
37411;SDS011;23278;52.110;6.050;2023-07-08T01:17:09;4.63;;;1.20;;
37411;SDS011;23278;52.110;6.050;2023-07-08T01:19:43;2.70;;;1.45;;
37411;SDS011;23278;52.110;6.050;2023-07-08T01:22:10;2.50;;;1.70;;
37411;SDS011;23278;52.110;6.050;2023-07-08T01:24:37;1.65;;;1.17;;
37411;SDS011;23278;52.110;6.050;2023-07-08T01:27:05;3.38;;;1.35;;
37411;SDS011;23278;52.110;6.050;2023-07-08T01:29:33;2.95;;;1.65;;
37411;SDS011;23278;52.110;6.050;2023-07-08T01:32:00;2.33;;;1.58;;
37411;SDS011;23278;52.110;6.050;2023-07-08T01:34:28;2.95;;;1.25;;
37411;SDS011;23278;52.110;6.050;2023-07-08T01:36:55;3.05;;;1.60;;
37411;SDS011;23278;52.110;6.050;2023-07-08T01:39:24;2.83;;;1.35;;
37411;SDS011;23278;52.110;6.050;2023-07-08T01:41:51;2.70;;;1.65;;
37411;SDS011;23278;52.110;6.050;2023-07-08T01:44:20;2.97;;;1.65;;
37411;SDS011;23278;52.110;6.050;2023-07-08T01:47:05;3.25;;;1.45;;
37411;SDS011;23278;52.110;6.050;2023-07-08T01:49:37;2.45;;;1.52;;
37411;SDS011;23278;52.110;6.050;2023-07-08T01:52:06;2.65;;;1.23;;
37411;SDS011;23278;52.110;6.050;2023-07-08T01:54:34;2.17;;;1.42;;
37411;SDS011;23278;52.110;6.050;2023-07-08T01:57:00;3.05;;;1.80;;
37411;SDS011;23278;52.110;6.050;2023-07-08T01:59:28;2.95;;;1.65;;
37411;SDS011;23278;52.110;6.050;2023-07-08T02:01:54;2.33;;;1.30;;
37411;SDS011;23278;52.110;6.050;2023-07-08T02:04:21;2.95;;;1.85;;
37411;SDS011;23278;52.110;6.050;2023-07-08T02:06:56;1.95;;;1.35;;
37411;SDS011;23278;52.110;6.050;2023-07-08T02:09:24;2.28;;;1.10;;
37411;SDS011;23278;52.110;6.050;2023-07-08T02:11:51;6.22;;;1.10;;
37411;SDS011;23278;52.110;6.050;2023-07-08T02:14:20;2.42;;;1.00;;
37411;SDS011;23278;52.110;6.050;2023-07-08T02:16:46;1.67;;;0.93;;
37411;SDS011;23278;52.110;6.050;2023-07-08T02:19:12;2.33;;;1.17;;
37411;SDS011;23278;52.110;6.050;2023-07-08T02:21:38;4.43;;;1.08;;
37411;SDS011;23278;52.110;6.050;2023-07-08T02:24:05;2.33;;;1.40;;
37411;SDS011;23278;52.110;6.050;2023-07-08T02:26:34;2.38;;;1.63;;
37411;SDS011;23278;52.110;6.050;2023-07-08T02:29:00;3.65;;;1.48;;
37411;SDS011;23278;52.110;6.050;2023-07-08T02:31:29;2.08;;;1.27;;
37411;SDS011;23278;52.110;6.050;2023-07-08T02:33:55;2.60;;;1.33;;
37411;SDS011;23278;52.110;6.050;2023-07-08T02:36:21;2.25;;;1.17;;
37411;SDS011;23278;52.110;6.050;2023-07-08T02:38:47;2.47;;;1.50;;
37411;SDS011;23278;52.110;6.050;2023-07-08T02:41:13;2.22;;;1.30;;
37411;SDS011;23278;52.110;6.050;2023-07-08T02:43:39;3.85;;;1.50;;
37411;SDS011;23278;52.110;6.050;2023-07-08T02:46:05;1.92;;;1.20;;
37411;SDS011;23278;52.110;6.050;2023-07-08T02:48:31;2.03;;;1.23;;
37411;SDS011;23278;52.110;6.050;2023-07-08T02:51:00;3.03;;;1.98;;
37411;SDS011;23278;52.110;6.050;2023-07-08T02:53:27;2.40;;;1.70;;
37411;SDS011;23278;52.110;6.050;2023-07-08T02:55:53;2.50;;;1.30;;
37411;SDS011;23278;52.110;6.050;2023-07-08T02:58:19;1.40;;;1.20;;
37411;SDS011;23278;52.110;6.050;2023-07-08T03:00:45;1.88;;;1.10;;
37411;SDS011;23278;52.110;6.050;2023-07-08T03:03:11;1.80;;;1.33;;
37411;SDS011;23278;52.110;6.050;2023-07-08T03:05:37;1.55;;;1.05;;
37411;SDS011;23278;52.110;6.050;2023-07-08T03:08:02;2.72;;;1.50;;
37411;SDS011;23278;52.110;6.050;2023-07-08T03:10:28;2.05;;;1.00;;
37411;SDS011;23278;52.110;6.050;2023-07-08T03:12:54;3.55;;;1.67;;
37411;SDS011;23278;52.110;6.050;2023-07-08T03:15:20;1.88;;;1.00;;
37411;SDS011;23278;52.110;6.050;2023-07-08T03:17:46;1.77;;;1.33;;
37411;SDS011;23278;52.110;6.050;2023-07-08T03:20:12;3.42;;;1.63;;
37411;SDS011;23278;52.110;6.050;2023-07-08T03:22:38;3.15;;;1.52;;
37411;SDS011;23278;52.110;6.050;2023-07-08T03:25:05;2.38;;;1.35;;
37411;SDS011;23278;52.110;6.050;2023-07-08T03:27:31;1.98;;;1.50;;
37411;SDS011;23278;52.110;6.050;2023-07-08T03:29:57;2.08;;;1.30;;
37411;SDS011;23278;52.110;6.050;2023-07-08T03:32:23;1.85;;;1.27;;
37411;SDS011;23278;52.110;6.050;2023-07-08T03:34:51;3.70;;;1.25;;
37411;SDS011;23278;52.110;6.050;2023-07-08T03:37:16;2.38;;;1.33;;
37411;SDS011;23278;52.110;6.050;2023-07-08T03:39:42;1.92;;;1.40;;
37411;SDS011;23278;52.110;6.050;2023-07-08T03:42:09;3.13;;;1.50;;
37411;SDS011;23278;52.110;6.050;2023-07-08T03:44:35;3.17;;;1.67;;
37411;SDS011;23278;52.110;6.050;2023-07-08T03:47:00;2.65;;;1.88;;
37411;SDS011;23278;52.110;6.050;2023-07-08T03:49:26;2.70;;;1.60;;
37411;SDS011;23278;52.110;6.050;2023-07-08T03:51:54;3.42;;;1.73;;
37411;SDS011;23278;52.110;6.050;2023-07-08T03:54:21;2.42;;;1.45;;
37411;SDS011;23278;52.110;6.050;2023-07-08T03:56:49;3.75;;;1.40;;
37411;SDS011;23278;52.110;6.050;2023-07-08T03:59:15;1.70;;;1.33;;
37411;SDS011;23278;52.110;6.050;2023-07-08T04:01:41;3.03;;;2.05;;
37411;SDS011;23278;52.110;6.050;2023-07-08T04:04:11;4.05;;;2.53;;
37411;SDS011;23278;52.110;6.050;2023-07-08T04:06:38;2.45;;;1.73;;
37411;SDS011;23278;52.110;6.050;2023-07-08T04:09:06;3.78;;;2.03;;
37411;SDS011;23278;52.110;6.050;2023-07-08T04:11:32;2.30;;;1.20;;
37411;SDS011;23278;52.110;6.050;2023-07-08T04:13:58;2.03;;;1.20;;
37411;SDS011;23278;52.110;6.050;2023-07-08T04:16:42;2.45;;;1.60;;
37411;SDS011;23278;52.110;6.050;2023-07-08T04:19:23;3.15;;;1.42;;
37411;SDS011;23278;52.110;6.050;2023-07-08T04:21:49;2.83;;;1.48;;
37411;SDS011;23278;52.110;6.050;2023-07-08T04:24:16;1.90;;;1.33;;
37411;SDS011;23278;52.110;6.050;2023-07-08T04:26:43;3.78;;;1.70;;
37411;SDS011;23278;52.110;6.050;2023-07-08T04:29:12;1.88;;;1.00;;
37411;SDS011;23278;52.110;6.050;2023-07-08T04:31:39;2.17;;;1.30;;
37411;SDS011;23278;52.110;6.050;2023-07-08T04:34:07;1.50;;;0.80;;
37411;SDS011;23278;52.110;6.050;2023-07-08T04:36:33;1.80;;;1.40;;
37411;SDS011;23278;52.110;6.050;2023-07-08T04:39:00;2.70;;;1.55;;
37411;SDS011;23278;52.110;6.050;2023-07-08T04:41:27;2.55;;;1.45;;
37411;SDS011;23278;52.110;6.050;2023-07-08T04:43:53;3.10;;;1.27;;
37411;SDS011;23278;52.110;6.050;2023-07-08T04:46:21;2.03;;;1.17;;
37411;SDS011;23278;52.110;6.050;2023-07-08T04:49:10;2.00;;;1.40;;
37411;SDS011;23278;52.110;6.050;2023-07-08T04:51:37;3.40;;;1.25;;
37411;SDS011;23278;52.110;6.050;2023-07-08T04:54:03;3.22;;;1.35;;
37411;SDS011;23278;52.110;6.050;2023-07-08T04:59:03;2.17;;;1.50;;
37411;SDS011;23278;52.110;6.050;2023-07-08T05:01:29;2.83;;;1.40;;
37411;SDS011;23278;52.110;6.050;2023-07-08T05:03:55;2.08;;;1.63;;
37411;SDS011;23278;52.110;6.050;2023-07-08T05:06:21;2.03;;;1.40;;
37411;SDS011;23278;52.110;6.050;2023-07-08T05:08:47;1.80;;;1.00;;
37411;SDS011;23278;52.110;6.050;2023-07-08T05:11:13;3.03;;;1.55;;
37411;SDS011;23278;52.110;6.050;2023-07-08T05:13:41;2.67;;;1.40;;
37411;SDS011;23278;52.110;6.050;2023-07-08T05:16:07;3.25;;;1.50;;
37411;SDS011;23278;52.110;6.050;2023-07-08T05:18:32;1.95;;;1.33;;
37411;SDS011;23278;52.110;6.050;2023-07-08T05:20:58;1.50;;;1.10;;
37411;SDS011;23278;52.110;6.050;2023-07-08T05:23:24;2.42;;;2.15;;
37411;SDS011;23278;52.110;6.050;2023-07-08T05:25:50;2.65;;;1.30;;
37411;SDS011;23278;52.110;6.050;2023-07-08T05:28:16;3.42;;;1.65;;
37411;SDS011;23278;52.110;6.050;2023-07-08T05:30:42;3.35;;;1.52;;
37411;SDS011;23278;52.110;6.050;2023-07-08T05:33:08;3.88;;;1.73;;
37411;SDS011;23278;52.110;6.050;2023-07-08T05:35:34;2.45;;;1.85;;
37411;SDS011;23278;52.110;6.050;2023-07-08T05:38:01;2.88;;;1.63;;
37411;SDS011;23278;52.110;6.050;2023-07-08T05:40:27;2.33;;;1.67;;
37411;SDS011;23278;52.110;6.050;2023-07-08T05:42:53;2.13;;;1.70;;
37411;SDS011;23278;52.110;6.050;2023-07-08T05:45:18;3.03;;;1.88;;
37411;SDS011;23278;52.110;6.050;2023-07-08T05:47:44;2.85;;;1.90;;
37411;SDS011;23278;52.110;6.050;2023-07-08T05:50:10;3.35;;;1.85;;
37411;SDS011;23278;52.110;6.050;2023-07-08T05:52:36;2.33;;;1.42;;
37411;SDS011;23278;52.110;6.050;2023-07-08T05:55:02;3.50;;;1.73;;
37411;SDS011;23278;52.110;6.050;2023-07-08T05:57:29;2.40;;;1.60;;
37411;SDS011;23278;52.110;6.050;2023-07-08T05:59:55;3.97;;;1.90;;
37411;SDS011;23278;52.110;6.050;2023-07-08T06:02:21;2.58;;;1.25;;
37411;SDS011;23278;52.110;6.050;2023-07-08T06:04:48;3.75;;;1.42;;
37411;SDS011;23278;52.110;6.050;2023-07-08T06:07:14;5.28;;;1.52;;
37411;SDS011;23278;52.110;6.050;2023-07-08T06:09:41;3.00;;;1.20;;
37411;SDS011;23278;52.110;6.050;2023-07-08T06:12:07;2.33;;;1.70;;
37411;SDS011;23278;52.110;6.050;2023-07-08T06:14:33;2.97;;;1.65;;
37411;SDS011;23278;52.110;6.050;2023-07-08T06:16:59;2.30;;;1.58;;
37411;SDS011;23278;52.110;6.050;2023-07-08T06:19:25;2.67;;;1.40;;
37411;SDS011;23278;52.110;6.050;2023-07-08T06:21:51;3.00;;;1.45;;
37411;SDS011;23278;52.110;6.050;2023-07-08T06:24:17;3.00;;;1.67;;
37411;SDS011;23278;52.110;6.050;2023-07-08T06:26:43;3.75;;;1.50;;
37411;SDS011;23278;52.110;6.050;2023-07-08T06:29:09;2.58;;;1.23;;
37411;SDS011;23278;52.110;6.050;2023-07-08T06:31:35;3.88;;;1.52;;
37411;SDS011;23278;52.110;6.050;2023-07-08T06:34:01;2.15;;;1.40;;
37411;SDS011;23278;52.110;6.050;2023-07-08T06:36:27;2.60;;;1.63;;
37411;SDS011;23278;52.110;6.050;2023-07-08T06:38:53;2.97;;;1.35;;
37411;SDS011;23278;52.110;6.050;2023-07-08T06:41:19;2.53;;;1.45;;
37411;SDS011;23278;52.110;6.050;2023-07-08T06:43:45;4.95;;;1.73;;
37411;SDS011;23278;52.110;6.050;2023-07-08T06:46:15;2.72;;;1.40;;
37411;SDS011;23278;52.110;6.050;2023-07-08T06:48:42;1.95;;;1.15;;
37411;SDS011;23278;52.110;6.050;2023-07-08T06:51:08;2.40;;;1.42;;
37411;SDS011;23278;52.110;6.050;2023-07-08T06:53:33;2.85;;;1.15;;
37411;SDS011;23278;52.110;6.050;2023-07-08T06:55:59;2.30;;;1.27;;
37411;SDS011;23278;52.110;6.050;2023-07-08T06:58:27;3.55;;;0.93;;
37411;SDS011;23278;52.110;6.050;2023-07-08T07:00:53;2.80;;;1.05;;
37411;SDS011;23278;52.110;6.050;2023-07-08T07:03:19;3.33;;;1.52;;
37411;SDS011;23278;52.110;6.050;2023-07-08T07:05:45;2.05;;;1.38;;
37411;SDS011;23278;52.110;6.050;2023-07-08T07:08:12;2.10;;;1.35;;
37411;SDS011;23278;52.110;6.050;2023-07-08T07:10:38;2.40;;;1.40;;
37411;SDS011;23278;52.110;6.050;2023-07-08T07:13:03;9.45;;;1.20;;
37411;SDS011;23278;52.110;6.050;2023-07-08T07:15:29;1.98;;;1.15;;
37411;SDS011;23278;52.110;6.050;2023-07-08T07:17:57;3.78;;;1.45;;
37411;SDS011;23278;52.110;6.050;2023-07-08T07:20:23;2.50;;;1.88;;
37411;SDS011;23278;52.110;6.050;2023-07-08T07:22:50;5.55;;;1.45;;
37411;SDS011;23278;52.110;6.050;2023-07-08T07:25:17;2.15;;;1.20;;
37411;SDS011;23278;52.110;6.050;2023-07-08T07:27:43;2.08;;;1.17;;
37411;SDS011;23278;52.110;6.050;2023-07-08T07:30:09;2.40;;;1.52;;
37411;SDS011;23278;52.110;6.050;2023-07-08T07:32:40;2.75;;;1.40;;
37411;SDS011;23278;52.110;6.050;2023-07-08T07:35:08;2.15;;;1.10;;
37411;SDS011;23278;52.110;6.050;2023-07-08T07:37:38;2.08;;;1.20;;
37411;SDS011;23278;52.110;6.050;2023-07-08T07:40:06;6.55;;;1.35;;
37411;SDS011;23278;52.110;6.050;2023-07-08T07:42:41;5.30;;;1.13;;
37411;SDS011;23278;52.110;6.050;2023-07-08T07:45:08;3.10;;;1.13;;
37411;SDS011;23278;52.110;6.050;2023-07-08T07:47:35;2.88;;;1.25;;
37411;SDS011;23278;52.110;6.050;2023-07-08T07:50:02;3.67;;;1.17;;
37411;SDS011;23278;52.110;6.050;2023-07-08T07:52:31;2.35;;;1.10;;
37411;SDS011;23278;52.110;6.050;2023-07-08T07:54:57;2.67;;;1.33;;
37411;SDS011;23278;52.110;6.050;2023-07-08T07:57:23;2.40;;;0.80;;
37411;SDS011;23278;52.110;6.050;2023-07-08T07:59:50;2.53;;;1.55;;
37411;SDS011;23278;52.110;6.050;2023-07-08T08:02:16;2.17;;;1.23;;
37411;SDS011;23278;52.110;6.050;2023-07-08T08:04:43;3.05;;;1.20;;
37411;SDS011;23278;52.110;6.050;2023-07-08T08:07:08;1.90;;;1.33;;
37411;SDS011;23278;52.110;6.050;2023-07-08T08:09:35;3.38;;;1.05;;
37411;SDS011;23278;52.110;6.050;2023-07-08T08:12:02;3.05;;;1.40;;
37411;SDS011;23278;52.110;6.050;2023-07-08T08:14:29;2.60;;;1.48;;
37411;SDS011;23278;52.110;6.050;2023-07-08T08:16:57;3.33;;;1.20;;
37411;SDS011;23278;52.110;6.050;2023-07-08T08:19:23;2.58;;;1.40;;
37411;SDS011;23278;52.110;6.050;2023-07-08T08:21:49;2.83;;;1.55;;
37411;SDS011;23278;52.110;6.050;2023-07-08T08:24:15;2.67;;;1.58;;
37411;SDS011;23278;52.110;6.050;2023-07-08T08:26:40;1.65;;;1.17;;
37411;SDS011;23278;52.110;6.050;2023-07-08T08:29:06;6.60;;;1.20;;
37411;SDS011;23278;52.110;6.050;2023-07-08T08:31:32;3.60;;;1.58;;
37411;SDS011;23278;52.110;6.050;2023-07-08T08:33:58;6.57;;;1.80;;
37411;SDS011;23278;52.110;6.050;2023-07-08T08:36:25;2.00;;;1.48;;
37411;SDS011;23278;52.110;6.050;2023-07-08T08:38:50;2.10;;;1.15;;
37411;SDS011;23278;52.110;6.050;2023-07-08T08:41:18;5.68;;;1.80;;
37411;SDS011;23278;52.110;6.050;2023-07-08T08:43:46;2.55;;;1.70;;
37411;SDS011;23278;52.110;6.050;2023-07-08T08:46:34;2.38;;;1.58;;
37411;SDS011;23278;52.110;6.050;2023-07-08T08:51:46;3.17;;;2.13;;
37411;SDS011;23278;52.110;6.050;2023-07-08T08:54:13;2.58;;;1.20;;
37411;SDS011;23278;52.110;6.050;2023-07-08T08:56:40;5.43;;;1.40;;
37411;SDS011;23278;52.110;6.050;2023-07-08T08:59:34;2.60;;;1.65;;
37411;SDS011;23278;52.110;6.050;2023-07-08T09:05:06;2.83;;;1.52;;
37411;SDS011;23278;52.110;6.050;2023-07-08T09:07:36;2.60;;;1.35;;
37411;SDS011;23278;52.110;6.050;2023-07-08T09:10:35;2.97;;;1.40;;
37411;SDS011;23278;52.110;6.050;2023-07-08T09:13:13;5.85;;;1.90;;
37411;SDS011;23278;52.110;6.050;2023-07-08T09:15:45;2.65;;;1.73;;
37411;SDS011;23278;52.110;6.050;2023-07-08T09:18:24;6.00;;;2.13;;
37411;SDS011;23278;52.110;6.050;2023-07-08T09:20:55;3.85;;;1.77;;
37411;SDS011;23278;52.110;6.050;2023-07-08T09:23:24;3.38;;;1.83;;
37411;SDS011;23278;52.110;6.050;2023-07-08T09:25:57;2.83;;;1.70;;
37411;SDS011;23278;52.110;6.050;2023-07-08T09:28:42;4.10;;;2.25;;
37411;SDS011;23278;52.110;6.050;2023-07-08T09:31:31;3.42;;;1.52;;
37411;SDS011;23278;52.110;6.050;2023-07-08T09:34:05;3.97;;;2.42;;
37411;SDS011;23278;52.110;6.050;2023-07-08T09:36:31;7.15;;;2.38;;
37411;SDS011;23278;52.110;6.050;2023-07-08T09:38:57;3.22;;;2.10;;
37411;SDS011;23278;52.110;6.050;2023-07-08T09:41:31;5.45;;;2.17;;
37411;SDS011;23278;52.110;6.050;2023-07-08T09:44:18;3.70;;;1.77;;
37411;SDS011;23278;52.110;6.050;2023-07-08T09:46:52;3.65;;;2.00;;
37411;SDS011;23278;52.110;6.050;2023-07-08T09:49:28;3.13;;;2.33;;
37411;SDS011;23278;52.110;6.050;2023-07-08T09:51:58;3.88;;;1.55;;
37411;SDS011;23278;52.110;6.050;2023-07-08T09:54:25;3.15;;;1.70;;
37411;SDS011;23278;52.110;6.050;2023-07-08T09:59:45;3.25;;;1.85;;
37411;SDS011;23278;52.110;6.050;2023-07-08T10:04:59;5.80;;;2.53;;
37411;SDS011;23278;52.110;6.050;2023-07-08T10:07:30;2.88;;;1.95;;
37411;SDS011;23278;52.110;6.050;2023-07-08T10:09:58;6.00;;;2.50;;
37411;SDS011;23278;52.110;6.050;2023-07-08T10:12:27;3.17;;;2.08;;
37411;SDS011;23278;52.110;6.050;2023-07-08T10:15:00;5.00;;;2.30;;
37411;SDS011;23278;52.110;6.050;2023-07-08T10:17:37;6.10;;;2.28;;
37411;SDS011;23278;52.110;6.050;2023-07-08T10:20:10;3.65;;;2.13;;
37411;SDS011;23278;52.110;6.050;2023-07-08T10:22:42;2.63;;;2.03;;
37411;SDS011;23278;52.110;6.050;2023-07-08T10:25:28;2.75;;;2.05;;
37411;SDS011;23278;52.110;6.050;2023-07-08T10:31:05;5.30;;;2.58;;
37411;SDS011;23278;52.110;6.050;2023-07-08T10:33:43;6.63;;;2.08;;
37411;SDS011;23278;52.110;6.050;2023-07-08T10:53:21;3.75;;;2.30;;
37411;SDS011;23278;52.110;6.050;2023-07-08T10:55:59;18.33;;;3.30;;
37411;SDS011;23278;52.110;6.050;2023-07-08T11:06:59;3.35;;;2.15;;
37411;SDS011;23278;52.110;6.050;2023-07-08T11:09:40;2.80;;;2.15;;
37411;SDS011;23278;52.110;6.050;2023-07-08T11:15:20;2.63;;;1.98;;
37411;SDS011;23278;52.110;6.050;2023-07-08T11:17:59;5.85;;;2.63;;
37411;SDS011;23278;52.110;6.050;2023-07-08T11:23:40;2.72;;;1.90;;
37411;SDS011;23278;52.110;6.050;2023-07-08T11:28:50;3.47;;;1.92;;
37411;SDS011;23278;52.110;6.050;2023-07-08T11:31:19;3.05;;;1.63;;
37411;SDS011;23278;52.110;6.050;2023-07-08T11:33:47;4.13;;;1.83;;
37411;SDS011;23278;52.110;6.050;2023-07-08T11:36:14;3.15;;;1.83;;
37411;SDS011;23278;52.110;6.050;2023-07-08T11:38:54;4.72;;;2.88;;
37411;SDS011;23278;52.110;6.050;2023-07-08T11:41:21;3.70;;;2.13;;
37411;SDS011;23278;52.110;6.050;2023-07-08T11:44:03;3.08;;;2.72;;
37411;SDS011;23278;52.110;6.050;2023-07-08T11:49:04;4.88;;;2.28;;
37411;SDS011;23278;52.110;6.050;2023-07-08T11:51:38;10.35;;;3.15;;
37411;SDS011;23278;52.110;6.050;2023-07-08T11:54:20;5.60;;;2.22;;
37411;SDS011;23278;52.110;6.050;2023-07-08T11:57:03;3.67;;;1.95;;
37411;SDS011;23278;52.110;6.050;2023-07-08T11:59:37;5.20;;;1.98;;
37411;SDS011;23278;52.110;6.050;2023-07-08T12:02:10;2.60;;;2.13;;
37411;SDS011;23278;52.110;6.050;2023-07-08T12:04:52;3.95;;;2.38;;
37411;SDS011;23278;52.110;6.050;2023-07-08T12:10:08;2.38;;;2.00;;
37411;SDS011;23278;52.110;6.050;2023-07-08T12:12:40;3.15;;;2.20;;
37411;SDS011;23278;52.110;6.050;2023-07-08T12:15:12;5.15;;;2.45;;
37411;SDS011;23278;52.110;6.050;2023-07-08T12:17:47;3.42;;;2.75;;
37411;SDS011;23278;52.110;6.050;2023-07-08T12:20:23;3.25;;;2.10;;
37411;SDS011;23278;52.110;6.050;2023-07-08T12:22:55;4.95;;;2.72;;
37411;SDS011;23278;52.110;6.050;2023-07-08T12:25:22;5.47;;;2.47;;
37411;SDS011;23278;52.110;6.050;2023-07-08T12:27:57;4.97;;;2.83;;
37411;SDS011;23278;52.110;6.050;2023-07-08T12:30:24;4.68;;;2.25;;
37411;SDS011;23278;52.110;6.050;2023-07-08T12:32:53;4.43;;;2.40;;
37411;SDS011;23278;52.110;6.050;2023-07-08T12:35:24;2.78;;;2.42;;
37411;SDS011;23278;52.110;6.050;2023-07-08T12:37:54;3.22;;;2.38;;
37411;SDS011;23278;52.110;6.050;2023-07-08T12:40:26;3.88;;;2.95;;
37411;SDS011;23278;52.110;6.050;2023-07-08T12:42:54;2.35;;;1.98;;
37411;SDS011;23278;52.110;6.050;2023-07-08T12:45:21;2.90;;;2.70;;
37411;SDS011;23278;52.110;6.050;2023-07-08T12:47:49;3.47;;;1.80;;
37411;SDS011;23278;52.110;6.050;2023-07-08T12:50:15;4.82;;;2.22;;
37411;SDS011;23278;52.110;6.050;2023-07-08T12:52:44;2.83;;;2.35;;
37411;SDS011;23278;52.110;6.050;2023-07-08T12:55:12;2.72;;;1.88;;
37411;SDS011;23278;52.110;6.050;2023-07-08T12:57:43;2.80;;;2.42;;
37411;SDS011;23278;52.110;6.050;2023-07-08T13:00:16;2.28;;;2.03;;
37411;SDS011;23278;52.110;6.050;2023-07-08T13:03:06;3.22;;;2.50;;
37411;SDS011;23278;52.110;6.050;2023-07-08T13:05:38;4.35;;;2.60;;
37411;SDS011;23278;52.110;6.050;2023-07-08T13:08:07;2.78;;;2.45;;
37411;SDS011;23278;52.110;6.050;2023-07-08T13:10:44;3.00;;;2.20;;
37411;SDS011;23278;52.110;6.050;2023-07-08T13:13:12;3.28;;;2.38;;
37411;SDS011;23278;52.110;6.050;2023-07-08T13:15:43;2.53;;;2.10;;
37411;SDS011;23278;52.110;6.050;2023-07-08T13:18:14;3.47;;;2.17;;
37411;SDS011;23278;52.110;6.050;2023-07-08T13:32:57;6.68;;;3.08;;
37411;SDS011;23278;52.110;6.050;2023-07-08T13:35:26;3.58;;;2.53;;
37411;SDS011;23278;52.110;6.050;2023-07-08T13:38:04;4.15;;;2.30;;
37411;SDS011;23278;52.110;6.050;2023-07-08T13:40:30;2.63;;;2.42;;
37411;SDS011;23278;52.110;6.050;2023-07-08T13:42:57;4.15;;;2.38;;
37411;SDS011;23278;52.110;6.050;2023-07-08T13:45:30;3.17;;;2.58;;
37411;SDS011;23278;52.110;6.050;2023-07-08T13:48:00;2.65;;;2.45;;
37411;SDS011;23278;52.110;6.050;2023-07-08T13:51:01;2.60;;;2.40;;
37411;SDS011;23278;52.110;6.050;2023-07-08T13:53:33;3.75;;;2.83;;
37411;SDS011;23278;52.110;6.050;2023-07-08T13:56:18;2.90;;;2.50;;
37411;SDS011;23278;52.110;6.050;2023-07-08T13:58:53;3.75;;;2.45;;
37411;SDS011;23278;52.110;6.050;2023-07-08T14:01:26;4.40;;;2.55;;
37411;SDS011;23278;52.110;6.050;2023-07-08T14:03:53;2.65;;;2.10;;
37411;SDS011;23278;52.110;6.050;2023-07-08T14:06:21;3.30;;;2.40;;
37411;SDS011;23278;52.110;6.050;2023-07-08T14:08:54;3.50;;;3.20;;
37411;SDS011;23278;52.110;6.050;2023-07-08T14:11:34;4.55;;;3.20;;
37411;SDS011;23278;52.110;6.050;2023-07-08T14:14:00;4.57;;;2.95;;
37411;SDS011;23278;52.110;6.050;2023-07-08T14:16:30;3.72;;;2.80;;
37411;SDS011;23278;52.110;6.050;2023-07-08T14:18:59;4.72;;;2.45;;
37411;SDS011;23278;52.110;6.050;2023-07-08T14:21:32;2.88;;;2.55;;
37411;SDS011;23278;52.110;6.050;2023-07-08T14:24:00;3.08;;;2.40;;
37411;SDS011;23278;52.110;6.050;2023-07-08T14:26:27;3.08;;;2.85;;
37411;SDS011;23278;52.110;6.050;2023-07-08T14:28:54;2.97;;;2.22;;
37411;SDS011;23278;52.110;6.050;2023-07-08T14:31:21;6.45;;;2.78;;
37411;SDS011;23278;52.110;6.050;2023-07-08T14:34:00;2.65;;;2.28;;
37411;SDS011;23278;52.110;6.050;2023-07-08T14:36:31;2.70;;;2.28;;
37411;SDS011;23278;52.110;6.050;2023-07-08T14:38:57;3.35;;;2.97;;
37411;SDS011;23278;52.110;6.050;2023-07-08T14:41:24;2.78;;;2.50;;
37411;SDS011;23278;52.110;6.050;2023-07-08T14:43:51;3.40;;;2.95;;
37411;SDS011;23278;52.110;6.050;2023-07-08T14:46:17;3.55;;;2.88;;
37411;SDS011;23278;52.110;6.050;2023-07-08T14:48:43;2.65;;;2.33;;
37411;SDS011;23278;52.110;6.050;2023-07-08T14:51:09;3.17;;;2.53;;
37411;SDS011;23278;52.110;6.050;2023-07-08T14:53:35;3.50;;;2.55;;
37411;SDS011;23278;52.110;6.050;2023-07-08T14:56:04;2.88;;;2.58;;
37411;SDS011;23278;52.110;6.050;2023-07-08T14:58:37;3.30;;;2.50;;
37411;SDS011;23278;52.110;6.050;2023-07-08T15:03:39;3.15;;;2.85;;
37411;SDS011;23278;52.110;6.050;2023-07-08T15:06:08;5.03;;;2.63;;
37411;SDS011;23278;52.110;6.050;2023-07-08T15:08:35;4.93;;;2.85;;
37411;SDS011;23278;52.110;6.050;2023-07-08T15:11:01;2.85;;;2.63;;
37411;SDS011;23278;52.110;6.050;2023-07-08T15:13:31;3.25;;;2.58;;
37411;SDS011;23278;52.110;6.050;2023-07-08T15:15:58;4.05;;;3.45;;
37411;SDS011;23278;52.110;6.050;2023-07-08T15:18:24;3.58;;;2.63;;
37411;SDS011;23278;52.110;6.050;2023-07-08T15:20:50;6.38;;;2.55;;
37411;SDS011;23278;52.110;6.050;2023-07-08T15:23:17;2.78;;;2.42;;
37411;SDS011;23278;52.110;6.050;2023-07-08T15:25:45;2.53;;;2.22;;
37411;SDS011;23278;52.110;6.050;2023-07-08T15:31:07;2.60;;;2.13;;
37411;SDS011;23278;52.110;6.050;2023-07-08T15:33:35;3.92;;;2.92;;
37411;SDS011;23278;52.110;6.050;2023-07-08T15:36:01;4.30;;;3.13;;
37411;SDS011;23278;52.110;6.050;2023-07-08T15:38:27;5.57;;;3.45;;
37411;SDS011;23278;52.110;6.050;2023-07-08T15:40:53;5.15;;;3.25;;
37411;SDS011;23278;52.110;6.050;2023-07-08T15:43:19;4.38;;;3.40;;
37411;SDS011;23278;52.110;6.050;2023-07-08T15:45:45;3.55;;;3.10;;
37411;SDS011;23278;52.110;6.050;2023-07-08T15:48:12;4.53;;;3.22;;
37411;SDS011;23278;52.110;6.050;2023-07-08T15:50:42;3.53;;;2.60;;
37411;SDS011;23278;52.110;6.050;2023-07-08T15:53:09;4.40;;;2.88;;
37411;SDS011;23278;52.110;6.050;2023-07-08T15:55:39;3.60;;;2.83;;
37411;SDS011;23278;52.110;6.050;2023-07-08T15:58:14;4.18;;;2.83;;
37411;SDS011;23278;52.110;6.050;2023-07-08T16:00:48;3.10;;;2.80;;
37411;SDS011;23278;52.110;6.050;2023-07-08T16:03:22;4.65;;;3.08;;
37411;SDS011;23278;52.110;6.050;2023-07-08T16:05:52;4.90;;;3.45;;
37411;SDS011;23278;52.110;6.050;2023-07-08T16:08:19;3.30;;;2.67;;
37411;SDS011;23278;52.110;6.050;2023-07-08T16:10:50;3.60;;;2.97;;
37411;SDS011;23278;52.110;6.050;2023-07-08T16:13:29;3.70;;;2.90;;
37411;SDS011;23278;52.110;6.050;2023-07-08T16:15:56;6.00;;;3.00;;
37411;SDS011;23278;52.110;6.050;2023-07-08T16:18:22;3.83;;;3.40;;
37411;SDS011;23278;52.110;6.050;2023-07-08T16:20:50;12.23;;;10.95;;
37411;SDS011;23278;52.110;6.050;2023-07-08T16:23:17;28.33;;;25.60;;
37411;SDS011;23278;52.110;6.050;2023-07-08T16:25:44;14.32;;;13.02;;